Time;durP1;ratioP1;P1;durP2;ratioP2;P2;SDS_P1;SDS_P2;PMS_P1;PMS_P2;Temp;Humidity;BMP_temperature;BMP_pressure;BME280_temperature;BME280_humidity;BME280_pressure;Samples;Min_cycle;Max_cycle;Signal;HPM_P1;HPM_P2
2022/07/04 00:01:10;;;;;;;0.43;0.13;;;;;;;19.32;56.17;101650.59;7387057;19;20100;-79
2022/07/04 00:03:47;;;;;;;2.17;0.20;;;;;;;19.28;56.32;101652.00;7384350;19;20036;-77
2022/07/04 00:06:15;;;;;;;3.00;0.20;;;;;;;19.25;56.43;101660.41;7382520;19;20015;-79
2022/07/04 00:08:41;;;;;;;1.15;0.20;;;;;;;19.23;56.76;101664.09;7384849;19;20430;-78
2022/07/04 00:11:08;;;;;;;1.33;0.20;;;;;;;19.21;56.62;101663.44;7385174;19;20015;-78
2022/07/04 00:13:38;;;;;;;1.70;0.20;;;;;;;19.19;56.92;101664.66;7387084;19;20014;-78
2022/07/04 00:16:05;;;;;;;2.40;0.38;;;;;;;19.15;57.09;101663.34;7384575;19;20534;-78
2022/07/04 00:18:32;;;;;;;1.45;0.25;;;;;;;19.11;57.36;101654.91;7381245;19;20041;-78
2022/07/04 00:20:58;;;;;;;2.53;0.22;;;;;;;19.09;56.88;101654.28;7383623;19;20085;-78
2022/07/04 00:23:25;;;;;;;2.28;0.20;;;;;;;19.09;57.21;101658.78;7385418;19;20049;-78
2022/07/04 00:25:52;;;;;;;1.02;0.22;;;;;;;19.10;57.75;101666.59;7380905;19;20110;-78
2022/07/04 00:28:19;;;;;;;1.50;0.25;;;;;;;19.08;57.11;101659.78;7386549;19;20010;-77
2022/07/04 00:30:46;;;;;;;1.52;0.20;;;;;;;19.06;57.55;101667.16;7383268;19;20503;-77
2022/07/04 00:33:13;;;;;;;3.63;0.40;;;;;;;19.03;57.51;101654.19;7384114;19;20367;-78
2022/07/04 00:35:40;;;;;;;2.00;0.40;;;;;;;19.02;57.94;101655.19;7382002;19;20021;-77
2022/07/04 00:38:07;;;;;;;1.63;0.38;;;;;;;18.99;58.02;101659.09;7385244;19;20066;-78
2022/07/04 00:40:34;;;;;;;1.52;0.30;;;;;;;19.00;58.51;101663.38;7384760;19;20658;-77
2022/07/04 00:43:03;;;;;;;1.23;0.22;;;;;;;18.99;58.03;101672.44;7385785;19;20017;-77
2022/07/04 00:45:30;;;;;;;0.95;0.20;;;;;;;19.00;58.58;101662.56;7384583;19;20212;-77
2022/07/04 00:47:57;;;;;;;2.53;0.30;;;;;;;19.00;58.25;101665.22;7383689;19;20018;-78
2022/07/04 00:50:25;;;;;;;1.02;0.30;;;;;;;18.99;58.15;101658.25;7381616;19;20078;-78
2022/07/04 00:52:54;;;;;;;3.72;0.47;;;;;;;18.98;58.02;101654.75;7385943;19;20014;-79
2022/07/04 00:55:22;;;;;;;1.45;0.43;;;;;;;18.96;58.70;101648.78;7382698;19;20019;-77
2022/07/04 00:57:49;;;;;;;3.88;0.30;;;;;;;18.98;58.23;101648.59;7384034;19;20017;-78
2022/07/04 01:00:20;;;;;;;2.25;0.20;;;;;;;18.96;58.12;101648.78;7383523;19;20142;-78
2022/07/04 01:02:47;;;;;;;4.15;0.30;;;;;;;18.93;57.71;101646.50;7381588;19;20033;-78
2022/07/04 01:05:15;;;;;;;1.05;0.30;;;;;;;18.94;57.73;101652.66;7380826;19;20086;-78
2022/07/04 01:07:42;;;;;;;2.15;0.30;;;;;;;18.91;57.83;101651.19;7378884;19;20401;-79
2022/07/04 01:10:10;;;;;;;1.23;0.30;;;;;;;18.90;57.84;101646.84;7381682;19;20434;-78
2022/07/04 01:12:37;;;;;;;2.13;0.25;;;;;;;18.84;57.93;101655.63;7383651;19;20021;-77
2022/07/04 01:15:06;;;;;;;1.60;0.30;;;;;;;18.80;58.22;101663.16;7382189;19;20034;-80
2022/07/04 01:17:34;;;;;;;1.67;0.30;;;;;;;18.79;58.38;101652.69;7383536;19;20098;-77
2022/07/04 01:20:02;;;;;;;1.58;0.30;;;;;;;18.75;58.58;101656.72;7382148;19;20014;-78
2022/07/04 01:22:29;;;;;;;0.75;0.28;;;;;;;18.72;58.90;101662.44;7384024;19;20447;-78
2022/07/04 01:24:56;;;;;;;1.67;0.52;;;;;;;18.68;58.81;101661.97;7383662;19;20066;-78
2022/07/04 01:27:23;;;;;;;2.75;0.20;;;;;;;18.66;58.47;101663.16;7381501;19;20056;-78
2022/07/04 01:29:50;;;;;;;0.55;0.20;;;;;;;18.66;58.89;101666.66;7389450;19;20066;-78
2022/07/04 01:32:17;;;;;;;2.75;0.30;;;;;;;18.67;58.80;101664.81;7390722;19;20022;-78
2022/07/04 01:34:44;;;;;;;1.73;0.20;;;;;;;18.67;58.65;101660.31;7390138;19;20070;-78
2022/07/04 01:37:11;;;;;;;1.48;0.20;;;;;;;18.66;58.57;101669.31;7388727;19;20011;-77
2022/07/04 01:39:39;;;;;;;4.38;0.30;;;;;;;18.62;58.96;101664.56;7392347;19;20013;-79
2022/07/04 01:42:06;;;;;;;1.48;0.20;;;;;;;18.58;59.01;101666.78;7389847;19;20090;-77
2022/07/04 01:44:33;;;;;;;2.92;0.20;;;;;;;18.57;59.35;101661.63;7390718;19;20011;-78
2022/07/04 01:47:00;;;;;;;1.15;0.20;;;;;;;18.54;59.11;101659.31;7386488;19;20019;-79
2022/07/04 01:49:28;;;;;;;0.82;0.20;;;;;;;18.53;59.27;101650.47;7386712;19;20018;-77
2022/07/04 01:51:55;;;;;;;1.00;0.30;;;;;;;18.50;59.26;101650.00;7388642;19;20345;-77
2022/07/04 01:54:24;;;;;;;2.70;0.30;;;;;;;18.47;59.31;101639.72;7390927;19;20021;-78
2022/07/04 01:56:51;;;;;;;2.15;0.25;;;;;;;18.44;59.19;101646.22;7390266;19;20022;-78
2022/07/04 01:59:18;;;;;;;2.25;0.20;;;;;;;18.41;59.63;101638.59;7390578;19;20097;-78
2022/07/04 02:01:45;;;;;;;0.65;0.20;;;;;;;18.36;59.83;101638.31;7389956;19;20082;-79
2022/07/04 02:04:13;;;;;;;3.10;0.30;;;;;;;18.32;60.12;101640.53;7388564;19;20025;-78
2022/07/04 02:06:40;;;;;;;1.38;0.30;;;;;;;18.28;60.09;101636.59;7387096;19;20011;-78
2022/07/04 02:09:16;;;;;;;1.23;0.20;;;;;;;18.24;60.33;101651.25;7386664;19;20465;-78
2022/07/04 02:14:33;;;;;;;2.75;0.30;;;;;;;18.11;60.73;101639.59;7388439;19;20018;-78
2022/07/04 02:17:00;;;;;;;1.10;0.20;;;;;;;18.04;60.78;101636.81;7388493;19;20020;-78
2022/07/04 02:19:27;;;;;;;1.23;0.20;;;;;;;18.02;61.24;101638.03;7388790;19;20126;-79
2022/07/04 02:21:54;;;;;;;2.35;0.30;;;;;;;17.99;61.18;101633.88;7388367;19;20014;-78
2022/07/04 02:24:21;;;;;;;4.00;0.38;;;;;;;17.95;61.09;101628.09;7388444;19;20035;-78
2022/07/04 02:26:48;;;;;;;2.50;0.30;;;;;;;17.95;61.27;101620.09;7388149;19;20403;-78
2022/07/04 02:29:15;;;;;;;2.20;0.30;;;;;;;17.94;61.29;101622.94;7389558;19;20105;-79
2022/07/04 02:31:42;;;;;;;3.85;0.40;;;;;;;17.94;61.36;101615.78;7389527;19;20077;-78
2022/07/04 02:34:09;;;;;;;1.77;0.40;;;;;;;17.92;60.98;101620.47;7387822;19;20010;-78
2022/07/04 02:36:36;;;;;;;2.15;0.30;;;;;;;17.90;61.13;101624.31;7387581;19;20035;-78
2022/07/04 02:39:07;;;;;;;1.05;0.25;;;;;;;17.85;61.32;101630.19;7387010;19;20010;-78
2022/07/04 02:41:34;;;;;;;1.83;0.30;;;;;;;17.82;61.56;101622.56;7388075;19;20042;-78
2022/07/04 02:44:01;;;;;;;4.32;0.20;;;;;;;17.79;61.61;101620.25;7389387;19;20059;-77
2022/07/04 02:46:28;;;;;;;0.73;0.20;;;;;;;17.77;62.01;101614.28;7384926;19;20040;-78
2022/07/04 02:48:55;;;;;;;3.28;0.35;;;;;;;17.73;61.49;101617.47;7389009;19;20022;-77
2022/07/04 02:51:22;;;;;;;1.38;0.20;;;;;;;17.71;61.94;101619.50;7386003;19;20014;-78
2022/07/04 02:53:49;;;;;;;3.35;0.30;;;;;;;17.70;61.84;101626.66;7388312;19;20107;-77
2022/07/04 02:56:16;;;;;;;2.38;0.30;;;;;;;17.65;62.47;101617.56;7387170;19;20025;-77
2022/07/04 02:58:43;;;;;;;2.08;0.30;;;;;;;17.64;62.16;101621.22;7386233;19;20022;-77
2022/07/04 03:01:12;;;;;;;1.63;0.30;;;;;;;17.61;62.09;101609.09;7385898;19;20014;-78
2022/07/04 03:03:39;;;;;;;2.15;0.30;;;;;;;17.60;61.86;101618.09;7386018;19;20019;-78
2022/07/04 03:06:10;;;;;;;2.33;0.22;;;;;;;17.58;62.08;101617.41;7385611;19;20014;-76
2022/07/04 03:08:37;;;;;;;2.60;0.30;;;;;;;17.57;62.65;101622.91;7387160;19;20467;-79
2022/07/04 03:11:05;;;;;;;1.42;0.32;;;;;;;17.52;62.26;101620.81;7383483;19;20029;-79
2022/07/04 03:13:32;;;;;;;2.25;0.30;;;;;;;17.48;62.15;101611.50;7388758;19;20027;-78
2022/07/04 03:15:59;;;;;;;3.20;0.40;;;;;;;17.44;62.23;101612.84;7387513;19;20553;-78
2022/07/04 03:18:26;;;;;;;0.88;0.20;;;;;;;17.40;62.51;101616.88;7386586;19;20082;-78
2022/07/04 03:20:53;;;;;;;2.13;0.57;;;;;;;17.36;62.44;101613.75;7385756;19;20086;-78
2022/07/04 03:23:20;;;;;;;3.10;0.30;;;;;;;17.33;62.63;101622.09;7387340;19;20513;-78
2022/07/04 03:25:47;;;;;;;0.93;0.30;;;;;;;17.37;62.73;101627.91;7384382;19;20042;-78
2022/07/04 03:28:14;;;;;;;2.50;0.30;;;;;;;17.40;62.26;101619.56;7385179;19;20400;-78
2022/07/04 03:30:42;;;;;;;1.38;0.30;;;;;;;17.42;62.10;101621.00;7386015;19;20021;-78
2022/07/04 03:33:09;;;;;;;1.20;0.30;;;;;;;17.41;62.36;101622.03;7385301;19;20018;-78
2022/07/04 03:35:35;;;;;;;2.88;0.30;;;;;;;17.40;62.39;101620.38;7383522;19;20022;-78
2022/07/04 03:38:02;;;;;;;4.88;0.20;;;;;;;17.39;62.57;101615.22;7385199;19;20011;-78
2022/07/04 03:40:30;;;;;;;1.13;0.30;;;;;;;17.41;62.38;101618.56;7383416;19;20113;-78
2022/07/04 03:42:58;;;;;;;1.00;0.20;;;;;;;17.43;62.37;101633.31;7386503;19;20022;-78
2022/07/04 03:45:25;;;;;;;0.70;0.20;;;;;;;17.44;62.70;101634.97;7384545;19;20022;-77
2022/07/04 03:47:56;;;;;;;1.20;0.30;;;;;;;17.43;62.55;101651.94;7386528;19;20031;-77
2022/07/04 03:50:23;;;;;;;0.82;0.20;;;;;;;17.40;62.61;101664.78;7383412;19;20022;-78
2022/07/04 03:52:51;;;;;;;3.22;0.20;;;;;;;17.36;62.77;101663.50;7386403;19;20018;-78
2022/07/04 03:55:18;;;;;;;1.55;0.20;;;;;;;17.35;62.54;101667.16;7386531;19;20018;-77
2022/07/04 03:57:44;;;;;;;1.33;0.30;;;;;;;17.32;62.51;101662.19;7388563;19;20026;-78
2022/07/04 04:00:12;;;;;;;2.08;0.30;;;;;;;17.32;63.48;101665.66;7385430;19;20077;-77
2022/07/04 04:02:39;;;;;;;1.85;0.20;;;;;;;17.29;62.88;101657.19;7387204;19;20016;-77
2022/07/04 04:05:30;;;;;;;1.77;0.30;;;;;;;17.25;63.09;101659.41;7383422;19;20014;-78
2022/07/04 04:08:00;;;;;;;0.82;0.30;;;;;;;17.21;63.26;101667.91;7383518;19;20010;-77
2022/07/04 04:10:28;;;;;;;1.55;0.32;;;;;;;17.19;63.46;101661.91;7384927;19;20024;-77
2022/07/04 04:12:56;;;;;;;4.25;0.30;;;;;;;17.19;63.19;101669.91;7386422;19;20017;-77
2022/07/04 04:15:23;;;;;;;5.00;0.30;;;;;;;17.16;64.27;101676.41;7385697;19;20002;-78
2022/07/04 04:17:50;;;;;;;1.17;0.30;;;;;;;17.11;63.74;101678.78;7385137;19;20070;-77
2022/07/04 04:20:17;;;;;;;2.85;0.40;;;;;;;17.06;63.57;101678.47;7380913;19;20520;-78
2022/07/04 04:22:44;;;;;;;1.90;0.30;;;;;;;17.01;63.86;101681.66;7385660;19;20014;-77
2022/07/04 04:25:11;;;;;;;2.20;0.40;;;;;;;17.01;63.95;101679.00;7382952;19;20491;-78
2022/07/04 04:27:38;;;;;;;2.65;0.40;;;;;;;17.00;63.91;101668.50;7384705;19;20011;-78
2022/07/04 04:30:05;;;;;;;2.03;0.45;;;;;;;17.00;63.92;101687.13;7383243;19;20025;-77
2022/07/04 04:32:32;;;;;;;2.47;0.30;;;;;;;16.98;63.82;101703.25;7387487;19;20022;-77
2022/07/04 04:34:59;;;;;;;1.45;0.35;;;;;;;16.97;64.19;101700.75;7383321;19;20035;-77
2022/07/04 04:37:26;;;;;;;1.42;0.30;;;;;;;16.92;64.14;101703.94;7383359;19;20082;-77
2022/07/04 04:39:53;;;;;;;1.48;0.30;;;;;;;16.89;63.88;101708.78;7385484;19;20038;-77
2022/07/04 04:42:20;;;;;;;1.75;0.40;;;;;;;16.87;64.40;101705.44;7383923;19;20066;-78
2022/07/04 04:44:47;;;;;;;0.80;0.20;;;;;;;16.88;64.61;101697.31;7386243;19;20025;-77
2022/07/04 04:47:15;;;;;;;2.30;0.40;;;;;;;16.90;64.79;101699.81;7381258;19;20471;-77
2022/07/04 04:49:42;;;;;;;2.75;0.40;;;;;;;16.91;64.57;101702.31;7383713;19;20014;-77
2022/07/04 04:52:09;;;;;;;1.10;0.40;;;;;;;16.94;64.76;101701.94;7382273;19;20019;-78
2022/07/04 04:54:36;;;;;;;1.05;0.30;;;;;;;16.93;64.76;101704.75;7385755;19;20336;-77
2022/07/04 04:57:04;;;;;;;2.70;0.40;;;;;;;16.92;64.37;101711.91;7381480;19;20010;-78
2022/07/04 04:59:32;;;;;;;0.65;0.30;;;;;;;16.91;64.45;101709.44;7384577;19;20032;-77
2022/07/04 05:01:59;;;;;;;1.70;0.28;;;;;;;16.91;64.47;101712.94;7383632;19;20015;-77
2022/07/04 05:04:26;;;;;;;0.75;0.30;;;;;;;16.90;64.74;101708.63;7389002;19;20074;-78
2022/07/04 05:06:53;;;;;;;2.38;0.35;;;;;;;16.91;65.00;101707.63;7390436;19;20583;-78
2022/07/04 05:09:20;;;;;;;2.65;0.35;;;;;;;16.96;64.84;101710.59;7387191;19;20014;-77
2022/07/04 05:11:48;;;;;;;0.82;0.30;;;;;;;16.97;64.61;101698.94;7393065;19;20032;-78
2022/07/04 05:14:15;;;;;;;1.83;0.32;;;;;;;16.96;64.53;101707.09;7392083;19;20379;-78
2022/07/04 05:16:42;;;;;;;4.13;0.30;;;;;;;16.93;64.42;101705.59;7390445;19;20014;-78
2022/07/04 05:19:09;;;;;;;2.25;0.30;;;;;;;16.91;64.51;101696.16;7389052;19;20605;-78
2022/07/04 05:21:36;;;;;;;1.25;0.20;;;;;;;16.85;64.79;101692.34;7391801;19;20013;-79
2022/07/04 05:24:03;;;;;;;0.32;0.20;;;;;;;16.85;64.56;101696.84;7391207;19;20019;-77
2022/07/04 05:26:30;;;;;;;0.80;0.20;;;;;;;16.84;64.71;101696.00;7392184;19;20007;-78
2022/07/04 05:29:02;;;;;;;1.98;0.20;;;;;;;16.84;64.79;101701.31;7390384;19;20010;-78
2022/07/04 05:31:39;;;;;;;0.70;0.20;;;;;;;16.84;65.21;101687.19;7391879;19;20040;-78
2022/07/04 05:34:06;;;;;;;1.27;0.20;;;;;;;16.83;65.08;101699.66;7387596;19;20344;-77
2022/07/04 05:36:33;;;;;;;2.60;0.30;;;;;;;16.80;64.97;101697.34;7387895;19;20014;-78
2022/07/04 05:39:00;;;;;;;1.80;0.30;;;;;;;16.77;65.73;101704.81;7391097;19;20010;-78
2022/07/04 05:41:28;;;;;;;1.15;0.20;;;;;;;16.76;65.22;101698.66;7389774;19;20217;-77
2022/07/04 05:43:55;;;;;;;2.65;0.30;;;;;;;16.78;64.99;101699.34;7390901;19;20066;-78
2022/07/04 05:46:25;;;;;;;0.50;0.10;;;;;;;16.81;65.14;101709.63;7391357;19;20032;-77
2022/07/04 05:48:52;;;;;;;0.73;0.20;;;;;;;16.83;65.21;101702.31;7388328;19;20060;-79
2022/07/04 05:51:19;;;;;;;0.47;0.20;;;;;;;16.85;65.47;101694.19;7387092;19;20476;-78
2022/07/04 05:53:46;;;;;;;2.25;0.60;;;;;;;16.91;65.32;101701.47;7391832;19;20082;-78
2022/07/04 05:56:13;;;;;;;0.85;0.20;;;;;;;16.93;65.82;101702.09;7388943;19;20370;-78
2022/07/04 05:58:40;;;;;;;1.70;0.20;;;;;;;16.89;64.67;101701.63;7390230;19;20017;-77
2022/07/04 06:01:08;;;;;;;1.38;0.30;;;;;;;16.91;64.98;101696.97;7389185;19;20082;-78
2022/07/04 06:03:38;;;;;;;1.30;0.20;;;;;;;16.90;65.26;101703.28;7388961;19;20022;-77
2022/07/04 06:06:05;;;;;;;1.35;0.20;;;;;;;16.91;65.55;101707.63;7386576;19;20014;-77
2022/07/04 06:08:32;;;;;;;1.10;0.20;;;;;;;16.94;65.55;101706.44;7386725;19;20090;-78
2022/07/04 06:10:59;;;;;;;1.05;0.30;;;;;;;16.99;66.62;101707.56;7390814;19;20011;-77
2022/07/04 06:13:27;;;;;;;1.13;0.20;;;;;;;16.98;65.86;101699.75;7390867;19;20013;-79
2022/07/04 06:15:54;;;;;;;1.05;0.20;;;;;;;17.02;64.71;101703.72;7389676;19;20015;-78
2022/07/04 06:18:21;;;;;;;3.50;0.95;;;;;;;17.04;64.37;101697.25;7391306;19;20370;-78
2022/07/04 06:20:48;;;;;;;1.45;0.50;;;;;;;17.07;64.57;101702.19;7389020;19;20077;-79
2022/07/04 06:23:15;;;;;;;0.65;0.20;;;;;;;17.10;64.75;101701.03;7389733;19;20003;-77
2022/07/04 06:25:42;;;;;;;2.65;0.20;;;;;;;17.10;64.13;101701.03;7389904;19;20031;-79
2022/07/04 06:28:09;;;;;;;1.83;0.30;;;;;;;17.14;64.08;101690.88;7386575;19;20016;-79
2022/07/04 06:30:56;;;;;;;2.15;0.30;;;;;;;17.22;63.41;101691.66;7389109;19;20073;-78
2022/07/04 06:33:23;;;;;;;1.17;0.20;;;;;;;17.28;63.90;101698.94;7389385;19;20090;-78
2022/07/04 06:35:56;;;;;;;2.47;0.25;;;;;;;17.42;63.22;101695.53;7385960;19;20020;-79
2022/07/04 06:38:25;;;;;;;;;;;;;;;17.49;62.85;101695.66;7390434;19;20006;-77
2022/07/04 06:40:58;;;;;;;1.45;0.20;;;;;;;17.46;62.96;101698.69;7384555;19;19915;-77
2022/07/04 06:43:43;;;;;;;2.97;0.40;;;;;;;17.48;62.93;101694.00;7390173;19;20022;-77
2022/07/04 06:46:10;;;;;;;0.50;0.20;;;;;;;17.51;63.15;101696.31;7387104;19;20077;-77
2022/07/04 06:48:37;;;;;;;1.23;0.20;;;;;;;17.53;63.08;101692.47;7387354;19;20500;-78
2022/07/04 06:51:04;;;;;;;1.67;0.20;;;;;;;17.56;62.33;101693.94;7386837;19;20014;-79
2022/07/04 06:53:31;;;;;;;1.17;0.10;;;;;;;17.58;62.53;101689.25;7388772;19;20577;-77
2022/07/04 06:55:58;;;;;;;1.50;0.17;;;;;;;17.58;62.19;101694.59;7387152;19;20042;-78
2022/07/04 06:58:25;;;;;;;0.52;0.17;;;;;;;17.61;61.63;101688.97;7388383;19;20016;-77
2022/07/04 07:00:52;;;;;;;0.82;0.20;;;;;;;17.64;61.81;101688.59;7385508;19;20015;-78
2022/07/04 07:03:19;;;;;;;0.55;0.17;;;;;;;17.70;62.10;101681.72;7389259;19;20027;-80
2022/07/04 07:05:46;;;;;;;1.25;0.38;;;;;;;17.74;62.01;101677.69;7381675;19;20014;-80
2022/07/04 07:08:30;;;;;;;1.40;0.20;;;;;;;17.76;61.85;101668.53;7386653;19;20367;-79
2022/07/04 07:11:12;;;;;;;1.00;0.10;;;;;;;17.78;61.12;101671.84;7388772;19;20018;-78
2022/07/04 07:13:47;;;;;;;1.92;0.20;;;;;;;17.82;60.08;101685.63;7389631;19;20018;-78
2022/07/04 07:16:14;;;;;;;1.73;0.20;;;;;;;17.85;59.96;101690.59;7387697;19;20014;-77
2022/07/04 07:18:43;;;;;;;1.00;0.10;;;;;;;17.89;58.60;101683.91;7387104;19;20377;-77
2022/07/04 07:21:10;;;;;;;1.45;0.10;;;;;;;17.92;58.93;101689.72;7385675;19;20022;-78
2022/07/04 07:23:39;;;;;;;2.60;0.10;;;;;;;17.94;58.35;101684.19;7384899;19;20085;-78
2022/07/04 07:26:06;;;;;;;0.65;0.10;;;;;;;17.98;58.26;101685.47;7382875;19;20424;-78
2022/07/04 07:28:34;;;;;;;1.15;0.10;;;;;;;18.01;58.48;101682.47;7382821;19;20375;-79
2022/07/04 07:31:02;;;;;;;0.40;0.10;;;;;;;18.05;58.70;101698.91;7384556;19;20032;-78
2022/07/04 07:33:30;;;;;;;0.70;0.20;;;;;;;18.08;59.21;101691.38;7383652;19;20129;-78
2022/07/04 07:35:57;;;;;;;0.52;0.13;;;;;;;18.16;60.09;101687.84;7384852;19;20018;-77
2022/07/04 07:38:24;;;;;;;0.90;0.32;;;;;;;18.21;58.36;101686.28;7384305;19;20109;-76
2022/07/04 07:40:51;;;;;;;1.58;0.10;;;;;;;18.34;57.31;101688.31;7382128;19;20011;-79
2022/07/04 07:43:18;;;;;;;3.40;0.10;;;;;;;18.51;56.19;101695.13;7387063;19;20022;-79
2022/07/04 07:45:45;;;;;;;2.35;0.10;;;;;;;18.82;54.60;101686.97;7388576;19;20238;-79
2022/07/04 07:48:13;;;;;;;2.30;0.10;;;;;;;19.38;53.42;101687.22;7386445;19;20395;-78
2022/07/04 07:50:40;;;;;;;1.02;0.10;;;;;;;19.92;50.62;101690.22;7382818;19;20072;-79
2022/07/04 07:53:08;;;;;;;1.02;0.00;;;;;;;20.11;51.54;101686.09;7385378;19;20035;-79
2022/07/04 07:55:38;;;;;;;0.65;0.10;;;;;;;20.13;51.58;101689.38;7385312;19;20018;-79
2022/07/04 07:58:04;;;;;;;1.27;0.10;;;;;;;20.07;52.10;101693.63;7387036;19;20020;-79
2022/07/04 08:00:37;;;;;;;1.35;0.00;;;;;;;20.05;56.53;101683.16;7386877;19;20452;-78
2022/07/04 08:06:07;;;;;;;2.25;0.70;;;;;;;19.75;51.45;101686.19;7384501;19;20015;-79
2022/07/04 08:08:34;;;;;;;1.92;0.10;;;;;;;19.65;51.40;101681.19;7384556;19;20082;-78
2022/07/04 08:11:04;;;;;;;0.52;0.10;;;;;;;19.57;50.68;101694.63;7384603;19;20089;-79
2022/07/04 08:13:31;;;;;;;2.25;0.10;;;;;;;19.51;50.55;101695.38;7388169;19;20459;-78
2022/07/04 08:15:58;;;;;;;0.57;0.08;;;;;;;19.48;50.82;101691.28;7385888;19;20098;-78
2022/07/04 08:18:25;;;;;;;0.25;0.00;;;;;;;19.45;50.69;101685.50;7386887;19;20031;-78
2022/07/04 08:20:52;;;;;;;2.28;0.10;;;;;;;19.46;50.05;101690.63;7385039;19;20209;-78
2022/07/04 08:23:31;;;;;;;2.28;0.10;;;;;;;19.48;51.19;101690.44;7384098;19;20475;-78
2022/07/04 08:26:00;;;;;;;0.73;0.10;;;;;;;19.47;50.41;101684.28;7382973;19;20108;-78
2022/07/04 08:28:28;;;;;;;0.85;0.20;;;;;;;19.51;51.79;101684.72;7386418;19;20085;-77
2022/07/04 08:30:56;;;;;;;2.58;0.40;;;;;;;19.47;50.00;101684.28;7384534;19;20014;-77
2022/07/04 08:33:24;;;;;;;1.35;0.10;;;;;;;19.50;51.43;101693.75;7384247;19;20078;-79
2022/07/04 08:35:53;;;;;;;0.45;0.15;;;;;;;19.48;51.76;101685.94;7384148;19;20066;-80
2022/07/04 08:38:20;;;;;;;0.98;0.00;;;;;;;19.47;50.23;101678.09;7386929;19;20011;-79
2022/07/04 08:40:50;;;;;;;2.38;0.10;;;;;;;19.48;50.14;101679.75;7391673;19;20371;-78
2022/07/04 08:43:21;;;;;;;1.30;0.10;;;;;;;19.53;52.54;101688.03;7393592;19;20010;-78
2022/07/04 08:45:52;;;;;;;1.20;0.05;;;;;;;19.56;49.61;101690.31;7391267;19;20018;-77
2022/07/04 08:48:42;;;;;;;0.47;0.10;;;;;;;19.62;49.75;101682.38;7388677;19;20025;-79
2022/07/04 08:51:16;;;;;;;2.30;0.10;;;;;;;19.69;50.62;101673.59;7390875;19;20014;-79
2022/07/04 08:53:52;;;;;;;1.75;0.10;;;;;;;19.72;50.50;101676.69;7394569;19;20019;-79
2022/07/04 08:59:08;;;;;;;2.00;0.25;;;;;;;19.88;49.83;101678.28;7392593;19;20014;-78
2022/07/04 09:01:39;;;;;;;1.75;0.13;;;;;;;19.97;50.01;101672.59;7391681;19;20023;-79
2022/07/04 09:04:06;;;;;;;0.38;0.00;;;;;;;20.04;50.13;101664.66;7392025;19;20364;-79
2022/07/04 09:06:34;;;;;;;0.95;0.10;;;;;;;20.12;50.36;101677.84;7389724;19;20050;-79
2022/07/04 09:09:01;;;;;;;0.57;0.10;;;;;;;20.15;48.27;101671.31;7389134;19;20118;-78
2022/07/04 09:11:28;;;;;;;1.95;0.00;;;;;;;20.18;48.34;101676.25;7392040;19;20078;-77
2022/07/04 09:13:57;;;;;;;3.60;0.00;;;;;;;20.22;47.33;101682.84;7390110;19;20011;-77
2022/07/04 09:16:24;;;;;;;1.42;0.10;;;;;;;20.27;47.99;101678.56;7390823;19;20621;-77
2022/07/04 09:18:54;;;;;;;1.25;0.10;;;;;;;20.32;48.14;101686.88;7390116;19;20014;-79
2022/07/04 09:21:23;;;;;;;0.43;0.10;;;;;;;20.34;48.16;101679.50;7389922;19;20011;-79
2022/07/04 09:23:50;;;;;;;1.23;0.10;;;;;;;20.34;48.58;101673.31;7390619;19;20041;-78
2022/07/04 09:26:21;;;;;;;0.98;0.13;;;;;;;20.37;49.53;101681.75;7389404;19;20025;-77
2022/07/04 09:28:48;;;;;;;1.75;0.10;;;;;;;20.39;48.46;101676.22;7389213;19;20731;-78
2022/07/04 09:31:30;;;;;;;1.42;0.10;;;;;;;20.41;48.94;101664.31;7392119;19;20106;-79
2022/07/04 09:34:05;;;;;;;1.25;0.10;;;;;;;20.45;49.98;101675.44;7389287;19;20037;-79
2022/07/04 09:36:34;;;;;;;1.50;0.10;;;;;;;20.47;49.79;101674.22;7390365;19;20054;-79
2022/07/04 09:39:15;;;;;;;1.25;0.30;;;;;;;20.49;49.38;101674.84;7390443;19;20018;-78
2022/07/04 09:42:03;;;;;;;0.63;0.10;;;;;;;20.51;49.98;101666.66;7390390;19;20619;-78
2022/07/04 09:44:36;;;;;;;1.55;0.10;;;;;;;20.49;48.71;101677.53;7392506;19;20026;-79
2022/07/04 09:47:24;;;;;;;0.43;0.10;;;;;;;20.54;49.79;101670.75;7390806;19;20047;-78
2022/07/04 09:50:06;;;;;;;0.73;0.10;;;;;;;20.54;49.22;101662.72;7387544;19;20014;-78
2022/07/04 09:53:01;;;;;;;1.45;0.20;;;;;;;20.60;51.04;101668.13;7389838;19;20037;-79
2022/07/04 09:55:34;;;;;;;0.30;0.10;;;;;;;20.64;51.07;101663.19;7393038;19;20126;-80
2022/07/04 09:58:07;;;;;;;2.03;0.30;;;;;;;20.72;50.64;101661.19;7391864;19;20031;-79
2022/07/04 10:00:38;;;;;;;2.10;0.10;;;;;;;20.79;50.14;101667.38;7389612;19;20014;-79
2022/07/04 10:03:20;;;;;;;2.80;0.20;;;;;;;20.87;49.99;101661.88;7389612;19;20014;-79
2022/07/04 10:06:03;;;;;;;1.20;0.10;;;;;;;21.00;49.49;101665.63;7389122;19;20333;-78
2022/07/04 10:08:30;;;;;;;0.85;0.10;;;;;;;21.11;48.50;101665.88;7388158;19;20030;-78
2022/07/04 10:10:59;;;;;;;1.25;0.10;;;;;;;21.17;48.76;101667.78;7389917;19;20031;-77
2022/07/04 10:13:30;;;;;;;2.35;0.20;;;;;;;21.28;49.05;101669.84;7389553;19;20040;-79
2022/07/04 10:15:57;;;;;;;0.40;0.10;;;;;;;21.37;48.68;101669.69;7389636;19;20074;-79
2022/07/04 10:18:26;;;;;;;2.65;0.30;;;;;;;21.48;48.59;101671.78;7389582;19;20028;-78
2022/07/04 10:21:00;;;;;;;0.90;0.10;;;;;;;21.57;48.29;101667.84;7388504;19;20356;-78
2022/07/04 10:23:33;;;;;;;0.52;0.10;;;;;;;21.65;49.51;101673.00;7389124;19;20014;-78
2022/07/04 10:26:02;;;;;;;7.68;0.30;;;;;;;21.67;48.64;101668.28;7389594;19;20014;-78
2022/07/04 10:28:29;;;;;;;1.92;0.20;;;;;;;21.72;48.81;101663.13;7389506;19;20091;-79
2022/07/04 10:30:58;;;;;;;1.45;0.10;;;;;;;21.76;50.24;101659.00;7388853;19;20511;-78
2022/07/04 10:33:27;;;;;;;1.77;0.20;;;;;;;21.83;49.50;101661.69;7390082;19;20022;-77
2022/07/04 10:35:56;;;;;;;1.83;0.30;;;;;;;21.82;48.51;101665.41;7387868;19;20082;-78
2022/07/04 10:38:27;;;;;;;0.43;0.10;;;;;;;21.78;50.10;101667.69;7390092;19;20032;-79
2022/07/04 10:41:02;;;;;;;1.67;0.10;;;;;;;21.79;48.25;101666.63;7389154;19;20020;-79
2022/07/04 10:43:42;;;;;;;1.23;0.20;;;;;;;21.87;49.51;101662.94;7389675;19;20015;-78
2022/07/04 10:46:15;;;;;;;0.88;0.20;;;;;;;21.88;48.31;101651.19;7387213;19;20311;-78
2022/07/04 10:48:53;;;;;;;1.48;0.30;;;;;;;21.87;49.69;101649.53;7387766;19;20026;-78
2022/07/04 10:51:42;;;;;;;0.60;0.15;;;;;;;21.82;48.66;101646.63;7386931;19;20014;-79
2022/07/04 10:54:12;;;;;;;1.55;0.20;;;;;;;21.79;49.00;101660.47;7386414;19;20006;-79
2022/07/04 10:56:52;;;;;;;0.22;0.10;;;;;;;21.81;50.22;101658.38;7387995;19;20074;-78
2022/07/04 10:59:26;;;;;;;1.95;0.10;;;;;;;21.75;49.37;101644.78;7385267;19;20010;-79
2022/07/04 11:02:16;;;;;;;0.98;0.20;;;;;;;21.67;49.74;101649.53;7384530;19;20021;-78
2022/07/04 11:05:03;;;;;;;1.00;0.10;;;;;;;21.55;48.58;101646.63;7384840;19;20018;-80
2022/07/04 11:07:30;;;;;;;2.80;0.10;;;;;;;21.52;49.28;101630.16;7385941;19;20277;-79
2022/07/04 11:10:13;;;;;;;0.98;0.10;;;;;;;21.50;49.34;101637.53;7388137;19;20475;-78
2022/07/04 11:13:02;;;;;;;1.63;0.20;;;;;;;21.49;50.16;101641.25;7387863;19;20028;-79
2022/07/04 11:15:31;;;;;;;2.42;0.28;;;;;;;21.55;49.98;101641.25;7386480;19;20086;-78
2022/07/04 11:18:00;;;;;;;3.22;0.30;;;;;;;21.62;49.21;101631.38;7386432;19;20203;-79
2022/07/04 11:20:38;;;;;;;1.30;0.10;;;;;;;21.70;49.66;101635.72;7383233;19;20053;-79
2022/07/04 11:23:28;;;;;;;2.45;0.10;;;;;;;21.75;48.17;101636.75;7386514;19;20042;-79
2022/07/04 11:26:01;;;;;;;0.45;0.10;;;;;;;21.83;48.74;101625.00;7388292;19;20491;-79
2022/07/04 11:28:33;;;;;;;1.42;0.10;;;;;;;21.86;47.78;101629.09;7388004;19;20011;-79
2022/07/04 11:31:11;;;;;;;0.23;0.10;;;;;;;21.88;47.83;101619.84;7387361;19;20042;-79
2022/07/04 11:33:43;;;;;;;4.57;0.70;;;;;;;21.94;47.78;101624.38;7385796;19;20018;-78
2022/07/04 11:36:22;;;;;;;1.17;0.10;;;;;;;21.96;47.58;101626.88;7386255;19;20018;-77
2022/07/04 11:38:53;;;;;;;3.47;0.10;;;;;;;22.00;47.82;101633.44;7387870;19;20014;-78
2022/07/04 11:47:15;;;;;;;1.48;0.25;;;;;;;22.02;48.73;101634.09;7386087;19;20010;-78
2022/07/04 11:49:54;;;;;;;2.55;0.35;;;;;;;21.97;48.62;101623.16;7386332;19;20007;-78